createdAt,value
2023-02-11T00:00:36.661Z,5.70
2023-02-11T00:03:05.976Z,5.60
2023-02-11T00:05:33.873Z,5.70
2023-02-11T00:08:01.758Z,5.20
2023-02-11T00:10:29.677Z,5.20
2023-02-11T00:12:57.811Z,6.00
2023-02-11T00:15:25.948Z,5.90
2023-02-11T00:17:53.840Z,5.20
2023-02-11T00:20:23.104Z,5.10
2023-02-11T00:22:50.946Z,5.20
2023-02-11T00:25:18.809Z,5.20
2023-02-11T00:27:46.707Z,5.50
2023-02-11T00:30:14.740Z,5.10
2023-02-11T00:32:43.296Z,5.10
2023-02-11T00:35:11.200Z,5.10
2023-02-11T00:37:40.521Z,5.10
2023-02-11T00:40:09.165Z,5.10
2023-02-11T00:42:37.393Z,5.10
2023-02-11T00:45:05.824Z,5.10
2023-02-11T00:47:33.686Z,5.10
2023-02-11T00:50:01.886Z,6.30
2023-02-11T00:52:29.823Z,6.00
2023-02-11T00:54:59.058Z,5.00
2023-02-11T00:57:26.968Z,6.20
2023-02-11T00:59:54.857Z,5.00
2023-02-11T01:02:22.737Z,5.00
2023-02-11T01:04:50.627Z,5.10
2023-02-11T01:07:18.538Z,5.00
2023-02-11T01:09:46.409Z,5.30
2023-02-11T01:12:15.639Z,5.10
2023-02-11T01:14:43.616Z,6.30
2023-02-11T01:17:11.496Z,5.10
2023-02-11T01:19:39.621Z,5.10
2023-02-11T01:22:07.677Z,5.10
2023-02-11T01:24:35.554Z,5.10
2023-02-11T01:27:03.778Z,5.20
2023-02-11T01:29:32.996Z,5.10
2023-02-11T01:32:01.418Z,6.00
2023-02-11T01:34:29.596Z,5.90
2023-02-11T01:37:01.020Z,5.20
2023-02-11T01:39:28.906Z,5.30
2023-02-11T01:41:56.794Z,5.20
2023-02-11T01:44:36.739Z,5.50
2023-02-11T01:47:06.497Z,5.60
2023-02-11T01:49:37.207Z,5.30
2023-02-11T01:52:10.814Z,5.30
2023-02-11T01:54:59.839Z,5.30
2023-02-11T01:57:30.336Z,5.70
2023-02-11T02:00:10.238Z,5.80
2023-02-11T02:02:49.041Z,5.40
2023-02-11T02:05:24.273Z,5.40
2023-02-11T02:07:59.449Z,5.70
2023-02-11T02:10:29.066Z,5.40
2023-02-11T02:12:57.116Z,5.60
2023-02-11T02:15:28.661Z,5.60
2023-02-11T02:18:08.598Z,5.40
2023-02-11T02:21:04.874Z,6.30
2023-02-11T02:23:59.549Z,5.50
2023-02-11T02:26:56.805Z,5.50
2023-02-11T02:29:54.420Z,5.50
2023-02-11T02:32:48.957Z,5.50
2023-02-11T02:35:27.637Z,5.50
2023-02-11T02:38:00.764Z,5.70
2023-02-11T02:40:34.158Z,6.00
2023-02-11T02:43:04.100Z,5.80
2023-02-11T02:45:32.070Z,5.50
2023-02-11T02:48:01.341Z,6.10
2023-02-11T02:50:32.638Z,5.70
2023-02-11T02:53:15.241Z,5.50
2023-02-11T02:55:54.193Z,5.70
2023-02-11T02:58:47.231Z,5.80
2023-02-11T03:01:26.494Z,5.50
2023-02-11T03:04:04.774Z,5.60
2023-02-11T03:06:37.226Z,5.60
2023-02-11T03:09:11.483Z,5.70
2023-02-11T03:11:39.994Z,6.40
2023-02-11T03:14:12.062Z,5.60
2023-02-11T03:16:40.831Z,5.60
2023-02-11T03:19:15.031Z,5.60
2023-02-11T03:21:45.338Z,5.80
2023-02-11T03:24:17.064Z,5.60
2023-02-11T03:26:49.956Z,5.60
2023-02-11T03:29:26.970Z,6.20
2023-02-11T03:32:02.341Z,5.60
2023-02-11T03:34:37.528Z,5.60
2023-02-11T03:37:10.732Z,5.60
2023-02-11T03:39:41.830Z,6.40
2023-02-11T03:42:11.852Z,5.60
2023-02-11T03:44:44.971Z,5.70
2023-02-11T03:47:16.401Z,5.60
2023-02-11T03:49:48.156Z,5.90
2023-02-11T03:52:19.156Z,5.50
2023-02-11T03:54:49.934Z,5.50
2023-02-11T03:57:17.920Z,6.60
2023-02-11T03:59:56.647Z,5.90
2023-02-11T04:02:27.937Z,6.00
2023-02-11T04:04:57.655Z,6.00
2023-02-11T04:07:25.773Z,5.90
2023-02-11T04:09:53.923Z,5.40
2023-02-11T04:12:22.041Z,5.80
2023-02-11T04:14:50.007Z,5.40
2023-02-11T04:17:17.923Z,6.20
2023-02-11T04:19:45.896Z,5.70
2023-02-11T04:22:15.205Z,5.40
2023-02-11T04:24:43.976Z,5.60
2023-02-11T04:27:11.860Z,5.40
2023-02-11T04:29:39.747Z,5.40
2023-02-11T04:32:07.761Z,6.10
2023-02-11T04:34:35.779Z,5.50
2023-02-11T04:37:04.039Z,6.30
2023-02-11T04:39:33.261Z,6.00
2023-02-11T04:42:01.264Z,5.40
2023-02-11T04:44:29.158Z,5.90
2023-02-11T04:46:57.244Z,5.50
2023-02-11T04:49:25.263Z,5.80
2023-02-11T04:51:53.159Z,6.40
2023-02-11T04:54:21.963Z,6.20
2023-02-11T04:56:51.440Z,6.50
2023-02-11T04:59:19.319Z,6.30
2023-02-11T05:01:47.198Z,5.90
2023-02-11T05:04:15.150Z,6.10
2023-02-11T05:06:43.101Z,6.00
2023-02-11T05:09:12.085Z,6.00
2023-02-11T05:11:40.292Z,6.20
2023-02-11T05:14:09.576Z,6.40
2023-02-11T05:16:37.532Z,6.10
2023-02-11T05:19:05.599Z,6.10
2023-02-11T05:21:33.480Z,5.70
2023-02-11T05:24:01.423Z,5.70
2023-02-11T05:26:29.483Z,6.30
2023-02-11T05:28:57.704Z,5.10
2023-02-11T05:31:27.036Z,5.90
2023-02-11T05:33:54.905Z,6.50
2023-02-11T05:36:22.804Z,6.20
2023-02-11T05:38:50.909Z,6.20
2023-02-11T05:41:18.826Z,6.30
2023-02-11T05:43:48.735Z,5.70
2023-02-11T05:46:16.672Z,5.70
2023-02-11T05:48:46.137Z,6.50
2023-02-11T05:51:14.081Z,6.50
2023-02-11T05:53:41.965Z,6.30
2023-02-11T05:56:10.390Z,5.80
2023-02-11T05:58:38.740Z,5.80
2023-02-11T06:01:06.639Z,6.20
2023-02-11T06:03:34.529Z,5.80
2023-02-11T06:06:03.842Z,6.00
2023-02-11T06:08:31.729Z,5.80
2023-02-11T06:10:59.571Z,5.80
2023-02-11T06:13:27.433Z,6.40
2023-02-11T06:15:58.918Z,6.60
2023-02-11T06:18:26.865Z,5.80
2023-02-11T06:20:54.815Z,5.80
2023-02-11T06:23:24.246Z,6.10
2023-02-11T06:25:53.420Z,5.90
2023-02-11T06:28:21.487Z,5.80
2023-02-11T06:30:49.513Z,5.80
2023-02-11T06:33:17.451Z,6.50
2023-02-11T06:35:45.300Z,6.00
2023-02-11T06:38:13.203Z,6.30
2023-02-11T06:40:42.599Z,5.80
2023-02-11T06:43:10.537Z,6.10
2023-02-11T06:45:38.373Z,5.90
2023-02-11T06:48:06.517Z,5.80
2023-02-11T06:50:34.404Z,5.80
2023-02-11T06:53:02.407Z,6.00
2023-02-11T06:55:30.319Z,5.90
2023-02-11T06:57:59.726Z,6.20
2023-02-11T07:00:29.000Z,6.60
2023-02-11T07:02:57.128Z,6.30
2023-02-11T07:05:25.220Z,5.90
2023-02-11T07:07:53.084Z,5.90
2023-02-11T07:10:21.030Z,6.10
2023-02-11T07:12:48.892Z,6.70
2023-02-11T07:15:18.506Z,5.90
2023-02-11T07:17:46.431Z,5.90
2023-02-11T07:20:15.512Z,5.90
2023-02-11T07:22:43.412Z,6.80
2023-02-11T07:25:11.289Z,6.30
2023-02-11T07:27:39.232Z,6.00
2023-02-11T07:30:07.904Z,6.00
2023-02-11T07:32:37.377Z,6.00
2023-02-11T07:35:05.976Z,6.00
2023-02-11T07:37:35.292Z,6.00
2023-02-11T07:40:03.250Z,6.10
2023-02-11T07:42:31.124Z,6.00
2023-02-11T07:44:59.029Z,6.00
2023-02-11T07:47:26.998Z,6.00
2023-02-11T07:49:56.762Z,6.00
2023-02-11T07:52:24.739Z,6.40
2023-02-11T07:54:52.617Z,6.30
2023-02-11T07:57:20.507Z,6.40
2023-02-11T07:59:48.441Z,6.00
2023-02-11T08:02:16.382Z,6.50
2023-02-11T08:04:46.448Z,6.00
2023-02-11T08:07:17.333Z,6.80
2023-02-11T08:09:45.445Z,6.40
2023-02-11T08:12:13.351Z,6.10
2023-02-11T08:14:41.205Z,6.60
2023-02-11T08:17:09.052Z,6.10
2023-02-11T08:19:37.064Z,6.10
2023-02-11T08:22:04.913Z,6.40
2023-02-11T08:24:34.135Z,6.10
2023-02-11T08:27:02.053Z,6.10
2023-02-11T08:29:30.530Z,6.10
2023-02-11T08:31:58.474Z,6.20
2023-02-11T08:34:26.415Z,6.20
2023-02-11T08:36:54.943Z,6.20
2023-02-11T08:39:23.949Z,6.20
2023-02-11T08:41:54.742Z,6.20
2023-02-11T08:44:23.900Z,6.20
2023-02-11T08:46:52.705Z,6.20
2023-02-11T08:49:21.283Z,6.20
2023-02-11T08:51:50.219Z,6.20
2023-02-11T08:54:18.559Z,6.60
2023-02-11T08:56:46.745Z,6.90
2023-02-11T08:59:17.714Z,6.30
2023-02-11T09:01:47.115Z,6.30
2023-02-11T09:04:15.688Z,6.30
2023-02-11T09:06:43.582Z,6.30
2023-02-11T09:09:13.578Z,6.70
2023-02-11T09:11:43.540Z,6.30
2023-02-11T09:14:19.844Z,6.30
2023-02-11T09:16:48.496Z,6.40
2023-02-11T09:19:16.631Z,6.40
2023-02-11T09:21:44.754Z,6.40
2023-02-11T09:24:12.866Z,6.40
2023-02-11T09:26:43.477Z,6.50
2023-02-11T09:29:11.355Z,6.50
2023-02-11T09:31:40.848Z,6.50
2023-02-11T09:34:09.522Z,6.60
2023-02-11T09:36:39.294Z,6.60
2023-02-11T09:39:10.238Z,6.60
2023-02-11T09:41:55.158Z,6.80
2023-02-11T09:44:25.918Z,6.60
2023-02-11T09:46:59.108Z,6.70
2023-02-11T09:49:35.436Z,6.70
2023-02-11T09:52:07.827Z,6.70
2023-02-11T09:54:40.092Z,6.70
2023-02-11T09:57:22.985Z,6.80
2023-02-11T09:59:56.438Z,6.80
2023-02-11T10:02:30.490Z,6.80
2023-02-11T10:05:17.315Z,6.90
2023-02-11T10:07:52.656Z,6.90
2023-02-11T10:10:40.841Z,6.90
2023-02-11T10:13:30.405Z,6.90
2023-02-11T10:16:05.540Z,7.00
2023-02-11T10:18:51.327Z,7.00
2023-02-11T10:21:27.155Z,7.00
2023-02-11T10:24:01.308Z,7.10
2023-02-11T10:26:32.555Z,7.20
2023-02-11T10:29:03.705Z,7.30
2023-02-11T10:31:40.760Z,7.30
2023-02-11T10:34:12.850Z,7.40
2023-02-11T10:36:43.534Z,7.40
2023-02-11T10:39:14.016Z,7.40
2023-02-11T10:41:45.472Z,7.40
2023-02-11T10:44:24.215Z,7.50
2023-02-11T10:46:53.148Z,7.50
2023-02-11T10:49:38.493Z,7.60
2023-02-11T10:52:31.487Z,7.70
2023-02-11T10:55:15.538Z,7.70
2023-02-11T10:57:50.334Z,7.70
2023-02-11T11:00:32.358Z,7.80
2023-02-11T11:03:02.939Z,7.80
2023-02-11T11:05:35.193Z,7.80
2023-02-11T11:08:05.445Z,7.80
2023-02-11T11:10:43.111Z,7.90
2023-02-11T11:13:30.198Z,7.90
2023-02-11T11:16:18.484Z,7.80
2023-02-11T11:18:47.646Z,7.80
2023-02-11T11:21:20.400Z,7.80
2023-02-11T11:23:51.566Z,7.80
2023-02-11T11:26:20.155Z,7.80
2023-02-11T11:29:02.524Z,7.80
2023-02-11T11:31:34.558Z,7.80
2023-02-11T11:34:07.156Z,7.80
2023-02-11T11:36:39.620Z,7.90
2023-02-11T11:39:21.021Z,7.90
2023-02-11T11:41:54.388Z,7.90
2023-02-11T11:44:31.264Z,7.90
2023-02-11T11:47:21.403Z,8.00
2023-02-11T11:49:57.424Z,8.00
2023-02-11T11:52:38.965Z,8.00
2023-02-11T11:55:16.977Z,8.00
2023-02-11T11:57:44.943Z,8.00
2023-02-11T12:00:22.080Z,8.10
2023-02-11T12:03:21.485Z,8.10
2023-02-11T12:06:00.577Z,8.10
2023-02-11T12:08:38.373Z,8.10
2023-02-11T12:11:18.405Z,8.10
2023-02-11T12:13:56.410Z,8.10
2023-02-11T12:16:34.665Z,8.10
2023-02-11T12:19:27.848Z,8.10
2023-02-11T12:22:05.840Z,8.10
2023-02-11T12:24:49.435Z,8.10
2023-02-11T12:27:23.793Z,8.10
2023-02-11T12:30:04.369Z,8.10
2023-02-11T12:32:44.984Z,8.10
2023-02-11T12:35:24.828Z,8.20
2023-02-11T12:38:25.661Z,8.20
2023-02-11T12:41:04.437Z,9.00
2023-02-11T12:43:36.648Z,8.40
2023-02-11T12:46:30.169Z,8.30
2023-02-11T12:49:19.051Z,8.30
2023-02-11T12:51:57.695Z,8.30
2023-02-11T12:54:29.724Z,8.40
2023-02-11T12:57:03.276Z,8.40
2023-02-11T12:59:41.534Z,8.40
2023-02-11T13:02:21.318Z,8.50
2023-02-11T13:04:55.111Z,8.90
2023-02-11T13:07:28.682Z,8.50
2023-02-11T13:10:03.020Z,8.50
2023-02-11T13:12:51.972Z,8.50
2023-02-11T13:15:20.086Z,8.50
2023-02-11T13:17:57.765Z,8.50
2023-02-11T13:20:35.628Z,8.50
2023-02-11T13:23:14.504Z,8.40
2023-02-11T13:25:47.553Z,8.40
2023-02-11T13:28:30.012Z,8.40
2023-02-11T13:31:02.799Z,8.40
2023-02-11T13:33:39.490Z,8.40
2023-02-11T13:36:25.344Z,8.40
2023-02-11T13:39:05.600Z,8.40
2023-02-11T13:41:37.923Z,8.40
2023-02-11T13:44:23.520Z,8.40
2023-02-11T13:46:59.553Z,8.40
2023-02-11T13:49:32.124Z,8.40
2023-02-11T13:52:02.873Z,8.40
2023-02-11T13:54:34.667Z,8.40
2023-02-11T13:57:36.764Z,8.40
2023-02-11T14:00:48.824Z,8.40
2023-02-11T14:03:42.239Z,8.40
2023-02-11T14:06:34.162Z,8.30
2023-02-11T14:09:10.332Z,8.40
2023-02-11T14:11:50.334Z,8.40
2023-02-11T14:14:23.950Z,8.40
2023-02-11T14:17:21.602Z,8.40
2023-02-11T14:19:51.367Z,8.40
2023-02-11T14:22:25.802Z,8.40
2023-02-11T14:24:57.274Z,8.40
2023-02-11T14:27:30.511Z,8.40
2023-02-11T14:30:25.206Z,8.30
2023-02-11T14:33:24.204Z,8.30
2023-02-11T14:36:05.652Z,8.30
2023-02-11T14:38:48.193Z,8.30
2023-02-11T14:41:23.587Z,8.30
2023-02-11T14:43:54.983Z,8.30
2023-02-11T14:46:24.556Z,8.30
2023-02-11T14:48:56.117Z,8.30
2023-02-11T14:51:28.805Z,8.30
2023-02-11T14:54:01.987Z,8.30
2023-02-11T14:56:32.025Z,8.30
2023-02-11T14:58:59.961Z,8.30
2023-02-11T15:01:31.805Z,8.30
2023-02-11T15:04:01.238Z,8.30
2023-02-11T15:06:33.297Z,8.40
2023-02-11T15:09:04.927Z,8.40
2023-02-11T15:11:39.034Z,8.40
2023-02-11T15:14:12.151Z,8.40
2023-02-11T15:16:44.081Z,8.40
2023-02-11T15:19:23.250Z,8.40
2023-02-11T15:21:53.632Z,8.40
2023-02-11T15:24:27.492Z,8.40
2023-02-11T15:27:03.189Z,8.40
2023-02-11T15:29:37.632Z,8.40
2023-02-11T15:32:14.804Z,8.40
2023-02-11T15:34:43.110Z,8.40
2023-02-11T15:37:15.465Z,8.40
2023-02-11T15:39:44.051Z,8.40
2023-02-11T15:42:24.265Z,8.40
2023-02-11T15:45:09.691Z,8.40
2023-02-11T15:47:37.903Z,8.30
2023-02-11T15:50:07.074Z,8.40
2023-02-11T15:52:37.904Z,8.40
2023-02-11T15:55:06.284Z,8.40
2023-02-11T15:57:35.097Z,8.40
2023-02-11T16:00:07.120Z,8.40
2023-02-11T16:02:38.597Z,8.30
2023-02-11T16:05:09.438Z,8.30
2023-02-11T16:07:47.721Z,8.30
2023-02-11T16:10:22.093Z,8.30
2023-02-11T16:13:17.973Z,8.30
2023-02-11T16:15:49.667Z,8.30
2023-02-11T16:18:52.088Z,8.30
2023-02-11T16:21:32.863Z,8.30
2023-02-11T16:24:03.312Z,8.20
2023-02-11T16:26:34.837Z,8.20
2023-02-11T16:29:09.278Z,8.20
2023-02-11T16:31:39.378Z,8.20
2023-02-11T16:34:14.762Z,8.20
2023-02-11T16:36:42.939Z,8.20
2023-02-11T16:39:13.697Z,8.20
2023-02-11T16:41:41.839Z,8.50
2023-02-11T16:44:09.828Z,8.20
2023-02-11T16:46:38.620Z,8.20
2023-02-11T16:49:12.107Z,8.10
2023-02-11T16:51:42.297Z,8.10
2023-02-11T16:54:16.019Z,8.10
2023-02-11T16:56:44.909Z,8.10
2023-02-11T16:59:13.278Z,8.10
2023-02-11T17:01:42.735Z,8.10
2023-02-11T17:04:14.860Z,8.10
2023-02-11T17:06:42.764Z,8.10
2023-02-11T17:09:16.498Z,8.10
2023-02-11T17:11:44.385Z,8.10
2023-02-11T17:14:12.282Z,8.10
2023-02-11T17:16:40.350Z,8.10
2023-02-11T17:19:08.461Z,8.10
2023-02-11T17:21:36.521Z,8.10
2023-02-11T17:24:04.809Z,8.10
2023-02-11T17:26:35.328Z,8.10
2023-02-11T17:29:03.497Z,8.10
2023-02-11T17:31:31.565Z,8.10
2023-02-11T17:33:59.484Z,8.10
2023-02-11T17:36:27.443Z,8.00
2023-02-11T17:38:56.221Z,8.10
2023-02-11T17:41:24.081Z,8.10
2023-02-11T17:43:53.378Z,8.20
2023-02-11T17:46:21.303Z,8.10
2023-02-11T17:48:49.248Z,8.10
2023-02-11T17:51:24.519Z,8.10
2023-02-11T17:53:52.493Z,8.10
2023-02-11T17:56:20.519Z,8.10
2023-02-11T17:58:48.490Z,8.10
2023-02-11T18:01:18.079Z,8.10
2023-02-11T18:03:46.093Z,8.00
2023-02-11T18:06:14.035Z,8.00
2023-02-11T18:08:43.086Z,8.00
2023-02-11T18:11:11.670Z,8.00
2023-02-11T18:13:39.546Z,8.00
2023-02-11T18:16:08.459Z,8.00
2023-02-11T18:18:37.748Z,7.90
2023-02-11T18:21:08.429Z,8.00
2023-02-11T18:23:36.413Z,8.00
2023-02-11T18:26:07.586Z,8.00
2023-02-11T18:28:35.515Z,8.00
2023-02-11T18:31:04.094Z,8.20
2023-02-11T18:33:32.219Z,8.10
2023-02-11T18:36:06.236Z,8.00
2023-02-11T18:38:34.428Z,7.70
2023-02-11T18:41:02.741Z,8.00
2023-02-11T18:43:33.429Z,8.00
2023-02-11T18:46:02.400Z,8.00
2023-02-11T18:48:30.477Z,8.00
2023-02-11T18:50:58.364Z,8.00
2023-02-11T18:53:27.762Z,8.00
2023-02-11T18:55:55.855Z,8.00
2023-02-11T18:58:23.789Z,8.00
2023-02-11T19:00:51.866Z,8.00
2023-02-11T19:03:19.868Z,8.00
2023-02-11T19:05:49.926Z,8.10
2023-02-11T19:08:18.180Z,8.00
2023-02-11T19:10:49.305Z,8.00
2023-02-11T19:13:17.224Z,8.00
2023-02-11T19:15:46.148Z,8.10
2023-02-11T19:18:15.368Z,8.00
2023-02-11T19:20:44.330Z,8.10
2023-02-11T19:23:12.458Z,8.10
2023-02-11T19:25:48.473Z,8.10
2023-02-11T19:28:16.913Z,8.00
2023-02-11T19:30:45.490Z,8.00
2023-02-11T19:33:13.637Z,8.00
2023-02-11T19:35:42.168Z,8.00
2023-02-11T19:38:10.056Z,8.00
2023-02-11T19:40:38.053Z,8.00
2023-02-11T19:43:07.543Z,8.00
2023-02-11T19:45:38.717Z,8.00
2023-02-11T19:48:06.872Z,8.00
2023-02-11T19:50:34.931Z,8.00
2023-02-11T19:53:03.076Z,8.00
2023-02-11T19:55:30.975Z,8.00
2023-02-11T19:57:58.887Z,8.00
2023-02-11T20:00:28.144Z,8.00
2023-02-11T20:02:56.228Z,8.00
2023-02-11T20:05:24.172Z,8.00
2023-02-11T20:07:52.170Z,8.00
2023-02-11T20:10:20.327Z,8.00
2023-02-11T20:12:48.235Z,7.90
2023-02-11T20:15:16.298Z,8.00
2023-02-11T20:17:45.629Z,8.00
2023-02-11T20:20:13.856Z,8.00
2023-02-11T20:22:41.973Z,8.00
2023-02-11T20:25:11.702Z,8.10
2023-02-11T20:27:39.685Z,8.10
2023-02-11T20:30:09.140Z,8.00
2023-02-11T20:32:38.675Z,8.10
2023-02-11T20:35:10.019Z,8.10
2023-02-11T20:37:38.711Z,8.10
2023-02-11T20:40:07.897Z,8.10
2023-02-11T20:42:35.777Z,8.10
2023-02-11T20:45:03.743Z,8.10
2023-02-11T20:47:31.628Z,8.10
2023-02-11T20:49:59.498Z,8.10
2023-02-11T20:52:29.249Z,8.10
2023-02-11T20:54:57.128Z,8.10
2023-02-11T20:57:25.106Z,8.10
2023-02-11T20:59:54.839Z,8.10
2023-02-11T21:02:24.756Z,8.10
2023-02-11T21:04:52.862Z,8.10
2023-02-11T21:07:20.802Z,8.10
2023-02-11T21:09:50.218Z,8.10
2023-02-11T21:12:18.299Z,8.10
2023-02-11T21:14:46.426Z,8.10
2023-02-11T21:17:14.296Z,8.10
2023-02-11T21:19:43.374Z,8.30
2023-02-11T21:22:11.475Z,8.20
2023-02-11T21:24:39.400Z,8.20
2023-02-11T21:27:08.705Z,8.10
2023-02-11T21:29:45.722Z,8.10
2023-02-11T21:32:20.821Z,8.20
2023-02-11T21:34:48.782Z,8.20
2023-02-11T21:37:16.899Z,8.20
2023-02-11T21:39:44.909Z,8.20
2023-02-11T21:42:14.325Z,8.20
2023-02-11T21:44:42.226Z,8.20
2023-02-11T21:47:10.128Z,8.10
2023-02-11T21:49:38.068Z,8.20
2023-02-11T21:52:06.240Z,8.20
2023-02-11T21:54:34.225Z,8.20
2023-02-11T21:57:03.158Z,8.10
2023-02-11T21:59:32.708Z,8.10
2023-02-11T22:02:00.605Z,8.10
2023-02-11T22:04:28.633Z,8.10
2023-02-11T22:06:56.606Z,8.10
2023-02-11T22:09:24.489Z,8.10
2023-02-11T22:11:53.584Z,8.10
2023-02-11T22:14:21.539Z,8.10
2023-02-11T22:16:50.929Z,8.10
2023-02-11T22:19:18.962Z,8.10
2023-02-11T22:21:46.856Z,8.10
2023-02-11T22:24:14.747Z,8.10
2023-02-11T22:26:42.697Z,8.10
2023-02-11T22:29:10.789Z,8.00
2023-02-11T22:31:38.909Z,8.00
2023-02-11T22:34:08.548Z,8.00
2023-02-11T22:36:38.321Z,8.00
2023-02-11T22:39:09.628Z,8.00
2023-02-11T22:41:38.984Z,8.00
2023-02-11T22:44:07.108Z,8.00
2023-02-11T22:46:34.979Z,8.00
2023-02-11T22:49:02.860Z,8.00
2023-02-11T22:51:32.637Z,8.00
2023-02-11T22:54:02.360Z,9.10
2023-02-11T22:56:32.355Z,8.00
2023-02-11T22:59:01.162Z,8.00
2023-02-11T23:01:29.904Z,7.90
2023-02-11T23:03:57.975Z,7.90
2023-02-11T23:06:25.865Z,7.90
2023-02-11T23:08:55.312Z,7.90
2023-02-11T23:11:25.700Z,7.90
2023-02-11T23:13:54.488Z,7.90
2023-02-11T23:16:24.026Z,7.90
2023-02-11T23:18:52.882Z,7.90
2023-02-11T23:21:23.494Z,7.90
2023-02-11T23:23:58.232Z,7.90
2023-02-11T23:26:26.656Z,10.00
2023-02-11T23:28:54.559Z,7.90
2023-02-11T23:31:24.174Z,7.80
2023-02-11T23:33:52.617Z,7.80
2023-02-11T23:36:22.683Z,7.80
2023-02-11T23:38:50.794Z,7.80
2023-02-11T23:41:20.580Z,7.80
2023-02-11T23:43:51.654Z,7.80
2023-02-11T23:46:21.737Z,7.80
2023-02-11T23:48:49.761Z,7.80
2023-02-11T23:51:17.819Z,7.80
2023-02-11T23:53:46.337Z,7.80
2023-02-11T23:56:17.442Z,7.80
2023-02-11T23:58:49.216Z,7.80
